Time;durP1;ratioP1;P1;durP2;ratioP2;P2;SDS_P1;SDS_P2;PMS_P1;PMS_P2;Temp;Humidity;BMP_temperature;BMP_pressure;BME280_temperature;BME280_humidity;BME280_pressure;Samples;Min_cycle;Max_cycle;Signal;HPM_P1;HPM_P2
2022/12/02 00:00:20;;;;;;;25.25;20.73;;;;;;;2.52;100.00;95867.28;5083358;28;20020;-65
2022/12/02 00:02:46;;;;;;;28.98;22.35;;;;;;;2.50;100.00;95863.94;5076825;28;20027;-64
2022/12/02 00:05:14;;;;;;;22.77;19.40;;;;;;;2.50;100.00;95861.34;5073992;28;20028;-65
2022/12/02 00:07:40;;;;;;;24.58;19.60;;;;;;;2.51;100.00;95862.19;5077835;28;20020;-65
2022/12/02 00:10:26;;;;;;;25.83;20.95;;;;;;;2.50;100.00;95857.91;5073127;28;20028;-64
2022/12/02 00:12:51;;;;;;;29.25;22.38;;;;;;;2.48;100.00;95850.19;5073137;28;20100;-65
2022/12/02 00:15:41;;;;;;;39.38;32.50;;;;;;;2.49;100.00;95851.03;5073849;28;20080;-61
2022/12/02 00:18:08;;;;;;;42.83;33.38;;;;;;;2.49;100.00;95851.03;5081881;28;20085;-65
2022/12/02 00:20:34;;;;;;;39.58;31.23;;;;;;;2.54;100.00;95852.47;5079240;28;20103;-60
2022/12/02 00:22:59;;;;;;;36.75;30.33;;;;;;;2.49;100.00;95851.03;5069585;28;20124;-61
2022/12/02 00:25:25;;;;;;;37.33;28.42;;;;;;;2.47;100.00;95852.91;5071566;28;20032;-61
2022/12/02 00:27:50;;;;;;;40.08;30.35;;;;;;;2.45;100.00;95849.56;5077227;28;20024;-60
2022/12/02 00:30:16;;;;;;;35.47;29.75;;;;;;;2.45;100.00;95854.75;5088670;28;20024;-60
2022/12/02 00:32:41;;;;;;;41.33;28.88;;;;;;;2.46;100.00;95848.63;5077010;28;20099;-61
2022/12/02 00:35:07;;;;;;;38.35;31.38;;;;;;;2.45;100.00;95834.78;5070313;28;20143;-55
2022/12/02 00:37:32;;;;;;;46.60;38.58;;;;;;;2.43;100.00;95841.84;5069848;28;20561;-61
2022/12/02 00:39:57;;;;;;;47.55;36.95;;;;;;;2.42;100.00;95830.59;5075171;28;20047;-66
2022/12/02 00:42:23;;;;;;;44.25;34.22;;;;;;;2.42;100.00;95833.19;5070917;28;20020;-65
2022/12/02 00:47:32;;;;;;;28.30;20.48;;;;;;;2.39;100.00;95835.16;5071695;28;20421;-65
2022/12/02 00:49:57;;;;;;;21.38;15.32;;;;;;;2.39;100.00;95832.53;5081198;28;20024;-66
2022/12/02 00:52:23;;;;;;;20.73;15.55;;;;;;;2.38;100.00;95831.69;5071017;28;20453;-66
2022/12/02 00:54:48;;;;;;;32.40;21.60;;;;;;;2.35;100.00;95829.28;5075284;28;20435;-66
2022/12/02 00:57:13;;;;;;;31.30;23.52;;;;;;;2.36;100.00;95822.34;5089481;28;20027;-59
2022/12/02 00:59:39;;;;;;;31.42;21.67;;;;;;;2.36;100.00;95820.56;5075812;28;20024;-61
2022/12/02 01:02:04;;;;;;;33.22;24.30;;;;;;;2.36;100.00;95824.94;5088323;28;20081;-60
2022/12/02 01:04:29;;;;;;;29.83;23.25;;;;;;;2.37;100.00;95822.22;5084522;28;20111;-61
2022/12/02 01:06:55;;;;;;;30.77;23.70;;;;;;;2.36;100.00;95819.72;5088169;28;20039;-61
2022/12/02 01:09:20;;;;;;;31.63;22.75;;;;;;;2.34;100.00;95821.59;5088923;28;20016;-61
2022/12/02 01:11:45;;;;;;;29.15;22.40;;;;;;;2.33;100.00;95822.50;5088305;28;20024;-60
2022/12/02 01:14:11;;;;;;;23.02;18.98;;;;;;;2.33;100.00;95827.72;5081066;28;20473;-64
2022/12/02 01:16:36;;;;;;;19.30;14.65;;;;;;;2.32;100.00;95821.66;5088582;28;20071;-66
2022/12/02 01:19:02;;;;;;;17.13;13.40;;;;;;;2.31;100.00;95820.00;5082239;28;20016;-57
2022/12/02 01:21:27;;;;;;;17.77;14.07;;;;;;;2.29;100.00;95814.06;5082074;28;20035;-55
2022/12/02 01:23:53;;;;;;;13.93;12.05;;;;;;;2.29;100.00;95816.66;5088823;28;20048;-56
2022/12/02 01:26:18;;;;;;;11.63;10.43;;;;;;;2.28;100.00;95830.56;5089207;28;20036;-56
2022/12/02 01:28:43;;;;;;;12.52;10.60;;;;;;;2.28;100.00;95823.59;5088589;28;20099;-56
2022/12/02 01:31:09;;;;;;;11.95;9.48;;;;;;;2.30;100.00;95823.50;5089107;28;20032;-57
2022/12/02 01:33:34;;;;;;;12.57;11.30;;;;;;;2.39;100.00;95824.75;5087733;28;20028;-66
2022/12/02 01:36:00;;;;;;;22.33;16.27;;;;;;;2.33;100.00;95823.34;5087719;28;20047;-59
2022/12/02 01:38:25;;;;;;;37.20;24.67;;;;;;;2.32;100.00;95824.25;5098706;28;20027;-60
2022/12/02 01:40:51;;;;;;;51.70;25.52;;;;;;;2.32;100.00;95829.47;5099610;28;20024;-59
2022/12/02 01:43:16;;;;;;;43.22;24.30;;;;;;;2.31;100.00;95820.00;5090598;28;20031;-60
2022/12/02 01:45:42;;;;;;;12.52;10.10;;;;;;;2.32;100.00;95831.19;5091042;28;20016;-60
2022/12/02 01:48:08;;;;;;;11.38;8.73;;;;;;;2.34;100.00;95824.19;5089607;28;20013;-60
2022/12/02 01:50:33;;;;;;;22.65;14.63;;;;;;;2.33;100.00;95835.50;5090681;28;20539;-60
2022/12/02 01:52:59;;;;;;;27.77;16.80;;;;;;;2.32;99.74;95832.06;5089382;28;20665;-60
2022/12/02 01:55:26;;;;;;;15.82;10.65;;;;;;;2.32;99.16;95826.84;5090848;28;20032;-60
2022/12/02 01:57:52;;;;;;;18.30;12.55;;;;;;;2.33;99.18;95827.72;5089836;28;20099;-60
2022/12/02 02:00:19;;;;;;;29.15;19.92;;;;;;;2.35;98.62;95833.66;5081456;28;20557;-60
2022/12/02 02:02:45;;;;;;;26.95;18.73;;;;;;;2.34;98.32;95829.38;5094523;28;20528;-61
2022/12/02 02:05:15;;;;;;;17.65;14.40;;;;;;;2.34;97.84;95834.56;5091688;28;20069;-60
2022/12/02 02:07:43;;;;;;;10.73;9.63;;;;;;;2.33;97.97;95833.72;5090998;28;20020;-60
2022/12/02 02:10:09;;;;;;;11.98;9.27;;;;;;;2.34;98.05;95830.19;5091605;28;20027;-60
2022/12/02 02:12:35;;;;;;;17.63;12.93;;;;;;;2.35;97.03;95833.66;5073697;28;20024;-61
2022/12/02 02:15:06;;;;;;;11.27;10.10;;;;;;;2.35;96.72;95831.06;5072092;28;20074;-66
2022/12/02 02:17:31;;;;;;;13.07;10.93;;;;;;;2.35;96.75;95826.69;5078831;28;20104;-66
2022/12/02 02:19:57;;;;;;;11.40;10.00;;;;;;;2.37;97.24;95829.19;5078191;28;20111;-65
2022/12/02 02:22:37;;;;;;;12.98;10.95;;;;;;;2.36;98.99;95830.13;5072138;28;20716;-65
2022/12/02 02:25:07;;;;;;;9.98;8.75;;;;;;;2.33;97.86;95832.91;5072361;28;20024;-66
2022/12/02 02:27:33;;;;;;;28.00;21.25;;;;;;;2.31;97.35;95830.38;5089665;28;20028;-66
2022/12/02 02:29:58;;;;;;;11.02;9.93;;;;;;;2.30;97.80;95818.31;5103908;28;20024;-61
2022/12/02 02:32:23;;;;;;;7.60;6.90;;;;;;;2.32;97.28;95818.22;5091456;28;20032;-61
2022/12/02 02:34:49;;;;;;;6.40;5.93;;;;;;;2.46;94.78;95815.66;5074782;28;20135;-61
2022/12/02 02:37:14;;;;;;;5.55;5.15;;;;;;;2.41;94.01;95821.13;5076572;28;20028;-61
2022/12/02 02:39:39;;;;;;;6.30;5.82;;;;;;;2.32;92.73;95821.66;5075111;28;20478;-61
2022/12/02 02:42:05;;;;;;;8.93;8.13;;;;;;;2.28;94.06;95814.97;5081350;28;20095;-62
2022/12/02 02:44:31;;;;;;;9.50;8.50;;;;;;;2.23;94.17;95817.81;5075207;28;20024;-61
2022/12/02 02:46:56;;;;;;;9.60;8.68;;;;;;;2.15;94.05;95810.47;5071459;28;20017;-61
2022/12/02 02:49:22;;;;;;;10.63;9.57;;;;;;;2.15;94.38;95809.66;5070604;28;20504;-60
2022/12/02 02:51:47;;;;;;;11.10;9.90;;;;;;;2.09;94.82;95805.63;5074088;28;20024;-60
2022/12/02 02:54:13;;;;;;;14.73;11.63;;;;;;;2.03;93.97;95811.19;5072866;28;20044;-61
2022/12/02 02:56:39;;;;;;;10.20;9.20;;;;;;;2.00;95.82;95803.56;5090960;28;20077;-61
2022/12/02 02:59:04;;;;;;;8.15;7.45;;;;;;;1.97;95.14;95799.38;5090230;28;20024;-61
2022/12/02 03:01:35;;;;;;;9.55;8.65;;;;;;;1.98;95.36;95798.44;5090974;28;20070;-61
2022/12/02 03:04:09;;;;;;;9.00;8.15;;;;;;;1.98;93.98;95788.06;5090860;28;20051;-61
2022/12/02 03:06:36;;;;;;;7.85;7.15;;;;;;;1.86;94.21;95791.31;5090764;28;20393;-61
2022/12/02 03:09:05;;;;;;;7.68;7.07;;;;;;;1.75;93.91;95788.50;5090309;28;20043;-64
2022/12/02 03:11:31;;;;;;;8.35;7.65;;;;;;;1.66;94.68;95785.50;5090683;28;20052;-60
2022/12/02 03:13:58;;;;;;;8.68;7.80;;;;;;;1.57;94.45;95793.78;5089793;28;20019;-57
2022/12/02 03:16:25;;;;;;;9.00;8.10;;;;;;;1.48;94.77;95789.13;5088751;28;20464;-56
2022/12/02 03:18:52;;;;;;;8.65;7.85;;;;;;;1.38;95.61;95789.59;5076527;28;20035;-55
2022/12/02 03:21:18;;;;;;;7.25;6.65;;;;;;;1.30;96.15;95794.38;5090593;28;20055;-55
2022/12/02 03:23:45;;;;;;;7.45;6.75;;;;;;;1.26;96.40;95796.28;5090016;28;20022;-56
2022/12/02 03:26:12;;;;;;;7.05;6.45;;;;;;;1.23;96.89;95795.63;5090160;28;20070;-55
2022/12/02 03:28:38;;;;;;;6.38;5.80;;;;;;;1.20;97.91;95790.59;5086774;28;20031;-60
2022/12/02 03:31:04;;;;;;;6.90;6.25;;;;;;;1.15;98.37;95788.25;5071258;28;20401;-66
2022/12/02 03:33:30;;;;;;;10.10;9.20;;;;;;;1.04;99.52;95788.81;5083391;28;20071;-60
2022/12/02 03:35:56;;;;;;;13.05;10.38;;;;;;;0.93;100.00;95788.53;5089902;28;20588;-60
2022/12/02 03:38:21;;;;;;;9.82;8.85;;;;;;;0.80;100.00;95784.00;5089361;28;20041;-60
2022/12/02 03:40:47;;;;;;;8.60;7.85;;;;;;;0.70;100.00;95781.06;5089429;28;20012;-60
2022/12/02 03:43:13;;;;;;;8.23;7.53;;;;;;;0.59;100.00;95769.56;5095681;28;20048;-61
2022/12/02 03:45:42;;;;;;;8.32;7.53;;;;;;;0.52;100.00;95772.44;5097578;28;20478;-61
2022/12/02 03:48:09;;;;;;;8.45;7.75;;;;;;;0.45;100.00;95778.03;5071490;28;20383;-60
2022/12/02 03:50:34;;;;;;;8.70;7.93;;;;;;;0.38;100.00;95772.34;5070561;28;20409;-60
2022/12/02 03:53:00;;;;;;;9.60;8.73;;;;;;;0.47;100.00;95778.81;5085809;28;20103;-60
2022/12/02 03:55:25;;;;;;;8.23;7.53;;;;;;;0.40;100.00;95775.69;5089120;28;20023;-61
2022/12/02 03:57:51;;;;;;;8.40;7.70;;;;;;;0.30;100.00;95779.63;5087439;28;20056;-60
2022/12/02 04:00:17;;;;;;;8.48;7.57;;;;;;;0.23;100.00;95779.13;5089063;28;20059;-60
2022/12/02 04:02:42;;;;;;;8.10;7.40;;;;;;;0.13;100.00;95778.75;5089301;28;20035;-61
2022/12/02 04:05:08;;;;;;;9.77;7.72;;;;;;;0.06;100.00;95774.75;5089710;28;20030;-61
2022/12/02 04:07:33;;;;;;;8.80;8.07;;;;;;;0.02;100.00;95773.25;5094861;28;20036;-56
2022/12/02 04:09:59;;;;;;;9.13;8.27;;;;;;;0.01;100.00;95774.16;5089422;28;20108;-66
2022/12/02 04:12:24;;;;;;;9.32;8.52;;;;;;;-0.04;100.00;95772.63;5081311;28;20033;-66
2022/12/02 04:14:49;;;;;;;10.63;8.55;;;;;;;-0.12;100.00;95764.38;5084589;28;20077;-67
2022/12/02 04:17:15;;;;;;;9.45;8.63;;;;;;;-0.18;100.00;95765.53;5089389;28;20101;-67
2022/12/02 04:19:40;;;;;;;9.75;8.77;;;;;;;-0.24;100.00;95771.00;5059944;28;20033;-67
2022/12/02 04:22:05;;;;;;;11.68;10.05;;;;;;;-0.27;100.00;95770.31;5070135;28;20486;-67
2022/12/02 04:24:31;;;;;;;11.05;10.13;;;;;;;-0.30;100.00;95766.97;5070030;28;20028;-66
2022/12/02 04:26:56;;;;;;;9.38;8.48;;;;;;;-0.31;100.00;95769.63;5078942;28;20622;-61
2022/12/02 04:29:22;;;;;;;10.02;9.07;;;;;;;-0.35;100.00;95768.91;5069852;28;20032;-60
2022/12/02 04:31:47;;;;;;;10.32;9.32;;;;;;;-0.43;100.00;95765.88;5076939;28;20610;-61
2022/12/02 04:34:12;;;;;;;10.82;9.65;;;;;;;-0.46;100.00;95766.03;5102004;28;20570;-61
2022/12/02 04:36:38;;;;;;;9.40;8.43;;;;;;;-0.49;100.00;95756.63;5082719;28;20107;-60
2022/12/02 04:39:03;;;;;;;9.25;8.45;;;;;;;-0.56;100.00;95760.44;5069634;28;20029;-60
2022/12/02 04:41:29;;;;;;;10.73;9.70;;;;;;;-0.60;100.00;95754.56;5070053;28;20082;-60
2022/12/02 04:43:54;;;;;;;10.25;9.23;;;;;;;-0.61;100.00;95762.41;5082427;28;20028;-60
2022/12/02 04:46:20;;;;;;;11.93;9.68;;;;;;;-0.65;100.00;95760.88;5069718;28;20061;-66
2022/12/02 04:48:45;;;;;;;9.77;8.88;;;;;;;-0.70;100.00;95753.34;5072216;28;20047;-56
2022/12/02 04:51:10;;;;;;;9.40;8.60;;;;;;;-0.73;100.00;95749.13;5069596;28;20512;-60
2022/12/02 04:53:36;;;;;;;10.35;9.35;;;;;;;-0.76;100.00;95754.44;5082458;28;20024;-60
2022/12/02 04:56:01;;;;;;;9.23;8.40;;;;;;;-0.82;100.00;95741.81;5075330;28;20028;-61
2022/12/02 04:58:27;;;;;;;8.57;7.88;;;;;;;-0.85;100.00;95751.44;5091875;28;20016;-60
2022/12/02 05:00:52;;;;;;;9.77;8.77;;;;;;;-0.85;100.00;95748.84;5070290;28;20040;-61
2022/12/02 05:03:17;;;;;;;10.57;9.60;;;;;;;-0.85;100.00;95747.13;5086350;28;20055;-61
2022/12/02 05:05:43;;;;;;;12.15;10.20;;;;;;;-0.84;100.00;95750.53;5089444;28;20024;-64
2022/12/02 05:08:08;;;;;;;10.27;9.27;;;;;;;-0.89;100.00;95749.00;5077292;28;20389;-66
2022/12/02 05:10:33;;;;;;;10.20;9.20;;;;;;;-0.93;100.00;95749.22;5082847;28;20043;-61
2022/12/02 05:12:59;;;;;;;10.65;9.65;;;;;;;-0.94;100.00;95738.03;5069441;28;20024;-61
2022/12/02 05:15:24;;;;;;;10.10;9.23;;;;;;;-0.97;100.00;95742.50;5086911;28;20032;-61
2022/12/02 05:17:49;;;;;;;10.98;10.02;;;;;;;-1.03;100.00;95749.63;5092614;28;20031;-61
2022/12/02 05:20:15;;;;;;;10.82;9.82;;;;;;;-1.07;100.00;95750.69;5084833;28;20028;-62
2022/12/02 05:22:40;;;;;;;12.18;11.02;;;;;;;-1.08;100.00;95749.00;5067387;28;20094;-61
2022/12/02 05:25:06;;;;;;;11.00;9.82;;;;;;;-1.03;100.00;95735.88;5081132;28;20042;-66
2022/12/02 05:27:31;;;;;;;11.07;10.00;;;;;;;-1.02;100.00;95746.16;5088374;28;20047;-63
2022/12/02 05:29:56;;;;;;;15.82;13.55;;;;;;;-1.05;100.00;95748.88;5091713;28;20039;-56
2022/12/02 05:32:22;;;;;;;13.52;11.95;;;;;;;-1.10;100.00;95755.16;5084200;28;20115;-56
2022/12/02 05:34:47;;;;;;;14.88;13.35;;;;;;;-1.13;100.00;95760.47;5083218;28;20089;-55
2022/12/02 05:37:13;;;;;;;14.73;12.77;;;;;;;-1.12;100.00;95754.38;5084691;28;20058;-56
2022/12/02 05:39:38;;;;;;;19.05;15.18;;;;;;;-1.09;100.00;95756.81;5065116;28;20020;-56
2022/12/02 05:42:11;;;;;;;15.77;13.02;;;;;;;-1.06;100.00;95751.50;5083707;28;20032;-56
2022/12/02 05:44:39;;;;;;;14.48;12.98;;;;;;;-1.05;100.00;95754.03;5091599;28;20044;-61
2022/12/02 05:47:27;;;;;;;15.00;13.38;;;;;;;-1.07;100.00;95755.84;5079927;28;20033;-60
2022/12/02 05:49:52;;;;;;;16.50;14.80;;;;;;;-1.09;100.00;95755.09;5072569;28;20024;-60
2022/12/02 05:52:21;;;;;;;21.98;15.63;;;;;;;-1.12;100.00;95749.22;5073505;28;20033;-61
2022/12/02 05:54:47;;;;;;;15.70;14.10;;;;;;;-1.17;100.00;95760.59;5073290;28;20052;-60
2022/12/02 05:57:13;;;;;;;17.10;14.98;;;;;;;-1.17;100.00;95755.44;5073912;28;20040;-60
2022/12/02 05:59:38;;;;;;;17.17;14.80;;;;;;;-1.14;100.00;95757.03;5072423;28;20036;-60
2022/12/02 06:02:13;;;;;;;15.63;13.90;;;;;;;-1.13;100.00;95758.69;5073330;28;20024;-60
2022/12/02 06:04:39;;;;;;;26.25;23.73;;;;;;;-1.14;100.00;95758.78;5072831;28;20039;-60
2022/12/02 06:07:10;;;;;;;34.22;30.95;;;;;;;-1.11;100.00;95764.63;5073871;28;20107;-67
2022/12/02 06:09:36;;;;;;;28.85;25.60;;;;;;;-1.10;100.00;95760.31;5073171;28;20032;-67
2022/12/02 06:12:02;;;;;;;29.58;26.35;;;;;;;-1.11;100.00;95758.63;5074076;28;20025;-67
2022/12/02 06:14:32;;;;;;;29.27;26.48;;;;;;;-1.15;100.00;95763.09;5072721;28;20521;-66
2022/12/02 06:17:00;;;;;;;28.98;26.15;;;;;;;-1.19;100.00;95765.00;5075310;28;20027;-67
2022/12/02 06:19:29;;;;;;;20.27;18.20;;;;;;;-1.17;100.00;95765.75;5082066;28;20032;-67
2022/12/02 06:21:58;;;;;;;19.30;17.35;;;;;;;-1.20;100.00;95763.31;5071721;28;20032;-59
2022/12/02 06:24:31;;;;;;;22.55;20.10;;;;;;;-1.20;100.00;95763.31;5071863;28;20044;-60
2022/12/02 06:26:59;;;;;;;22.63;20.27;;;;;;;-1.21;100.00;95764.22;5077438;28;20065;-65
2022/12/02 06:29:27;;;;;;;23.95;21.65;;;;;;;-1.24;100.00;95756.59;5091206;28;20099;-65
2022/12/02 06:31:53;;;;;;;24.05;21.55;;;;;;;-1.28;100.00;95754.22;5074849;28;20020;-66
2022/12/02 06:34:30;;;;;;;22.08;19.75;;;;;;;-1.31;100.00;95758.63;5084346;28;20502;-65
2022/12/02 06:36:57;;;;;;;22.45;19.83;;;;;;;-1.36;100.00;95762.31;5072939;28;20040;-65
2022/12/02 06:39:23;;;;;;;22.67;20.25;;;;;;;-1.33;100.00;95767.34;5073858;28;20028;-65
2022/12/02 06:41:50;;;;;;;22.50;20.05;;;;;;;-1.30;100.00;95760.31;5084946;28;20029;-56
2022/12/02 06:47:32;;;;;;;24.30;21.85;;;;;;;-1.43;100.00;95769.50;5075385;28;20097;-55
2022/12/02 06:50:22;;;;;;;23.52;21.13;;;;;;;-1.50;100.00;95761.16;5083026;28;20020;-55
2022/12/02 06:52:47;;;;;;;23.50;21.05;;;;;;;-1.51;100.00;95766.41;5085583;28;20080;-56
2022/12/02 06:55:36;;;;;;;25.38;22.20;;;;;;;-1.51;100.00;95774.16;5083640;28;20036;-54
2022/12/02 06:58:21;;;;;;;25.95;23.33;;;;;;;-1.56;100.00;95773.50;5080432;28;20119;-56
2022/12/02 07:00:47;;;;;;;25.00;22.40;;;;;;;-1.60;100.00;95773.63;5085983;28;20051;-61
2022/12/02 07:03:26;;;;;;;26.35;22.35;;;;;;;-1.64;100.00;95772.09;5080258;28;20036;-70
2022/12/02 07:05:54;;;;;;;32.85;25.77;;;;;;;-1.67;100.00;95772.22;5086553;28;20020;-61
2022/12/02 07:08:20;;;;;;;44.95;33.90;;;;;;;-1.65;100.00;95767.00;5077555;28;20498;-61
2022/12/02 07:10:45;;;;;;;39.58;31.95;;;;;;;-1.67;100.00;95768.78;5090222;28;20020;-63
2022/12/02 07:13:17;;;;;;;61.63;43.83;;;;;;;-1.66;100.00;95770.47;5087729;28;20593;-61
2022/12/02 07:15:42;;;;;;;37.20;28.05;;;;;;;-1.67;100.00;95772.22;5081825;28;20021;-62
2022/12/02 07:18:15;;;;;;;29.65;23.65;;;;;;;-1.68;100.00;95773.13;5084436;28;20111;-61
2022/12/02 07:20:43;;;;;;;23.85;19.90;;;;;;;-1.64;100.00;95766.91;5070528;28;20521;-62
2022/12/02 07:23:17;;;;;;;23.90;15.93;;;;;;;-1.62;100.00;95770.28;5070716;28;20020;-64
2022/12/02 07:25:49;;;;;;;20.00;16.52;;;;;;;-1.61;100.00;95776.28;5078323;28;20090;-64
2022/12/02 07:28:31;;;;;;;18.45;16.33;;;;;;;-1.62;100.00;95774.63;5088477;28;20027;-64
2022/12/02 07:31:01;;;;;;;18.45;16.45;;;;;;;-1.60;100.00;95768.47;5071146;28;20502;-64
2022/12/02 07:33:27;;;;;;;21.90;19.20;;;;;;;-1.52;100.00;95769.91;5075705;28;20052;-65
2022/12/02 07:35:53;;;;;;;23.55;19.60;;;;;;;-1.49;100.00;95773.16;5079436;28;20430;-64
2022/12/02 07:38:18;;;;;;;36.50;27.25;;;;;;;-1.54;100.00;95775.13;5071214;28;20104;-64
2022/12/02 07:40:44;;;;;;;33.28;27.80;;;;;;;-1.58;100.00;95776.16;5077557;28;20032;-55
2022/12/02 07:43:10;;;;;;;37.80;27.08;;;;;;;-1.54;100.00;95774.28;5084858;28;20040;-62
2022/12/02 07:45:35;;;;;;;30.48;26.27;;;;;;;-1.54;100.00;95779.47;5069727;28;20032;-63
2022/12/02 07:48:01;;;;;;;33.35;26.08;;;;;;;-1.53;100.00;95781.13;5069277;28;20031;-63
2022/12/02 07:50:26;;;;;;;25.15;22.55;;;;;;;-1.51;100.00;95777.56;5069313;28;20020;-63
2022/12/02 07:52:51;;;;;;;29.65;22.63;;;;;;;-1.49;100.00;95775.75;5068773;28;20028;-62
2022/12/02 07:55:17;;;;;;;26.60;23.55;;;;;;;-1.47;100.00;95770.53;5069333;28;20040;-63
2022/12/02 07:57:42;;;;;;;27.73;22.40;;;;;;;-1.42;100.00;95767.75;5070125;28;20024;-62
2022/12/02 08:00:09;;;;;;;25.23;22.65;;;;;;;-1.42;100.00;95773.75;5074001;28;20025;-56
2022/12/02 08:02:34;;;;;;;29.10;26.00;;;;;;;-1.43;100.00;95771.25;5069497;28;20028;-68
2022/12/02 08:05:00;;;;;;;32.78;25.40;;;;;;;-1.42;100.00;95765.19;5069298;28;20030;-69
2022/12/02 08:07:25;;;;;;;40.28;28.83;;;;;;;-1.40;100.00;95763.38;5068763;28;20028;-68
2022/12/02 08:09:51;;;;;;;29.23;25.95;;;;;;;-1.37;100.00;95765.81;5069698;28;20111;-68
2022/12/02 08:12:16;;;;;;;27.65;23.70;;;;;;;-1.36;100.00;95768.31;5069466;28;20024;-68
2022/12/02 08:14:41;;;;;;;29.75;26.58;;;;;;;-1.34;100.00;95760.50;5069407;28;20036;-68
2022/12/02 08:17:07;;;;;;;32.40;28.17;;;;;;;-1.34;100.00;95769.06;5074412;28;20049;-69
2022/12/02 08:19:32;;;;;;;32.60;28.95;;;;;;;-1.33;100.00;95767.34;5081299;28;20035;-68
2022/12/02 08:21:58;;;;;;;29.73;26.60;;;;;;;-1.32;100.00;95763.84;5085030;28;20024;-60
2022/12/02 08:24:23;;;;;;;25.05;21.45;;;;;;;-1.33;100.00;95772.50;5084671;28;20032;-60
2022/12/02 08:26:48;;;;;;;24.15;21.48;;;;;;;-1.30;100.00;95770.63;5079401;28;20031;-60
2022/12/02 08:29:14;;;;;;;23.90;19.60;;;;;;;-1.25;100.00;95767.00;5079460;28;20028;-60
2022/12/02 08:31:39;;;;;;;21.17;18.83;;;;;;;-1.22;100.00;95767.69;5079987;28;20489;-60
2022/12/02 08:34:05;;;;;;;21.73;17.88;;;;;;;-1.21;100.00;95768.53;5083178;28;20113;-61
2022/12/02 08:36:30;;;;;;;28.20;21.00;;;;;;;-1.20;100.00;95765.91;5082412;28;20028;-64
2022/12/02 08:38:56;;;;;;;27.00;21.60;;;;;;;-1.17;100.00;95765.75;5080150;28;20024;-63
2022/12/02 08:41:21;;;;;;;25.08;20.35;;;;;;;-1.12;100.00;95762.13;5077989;28;20712;-59
2022/12/02 08:43:47;;;;;;;20.38;16.92;;;;;;;-1.07;100.00;95770.50;5088647;28;20028;-60
2022/12/02 08:46:13;;;;;;;19.45;17.13;;;;;;;-1.06;100.00;95762.69;5088574;28;20028;-60
2022/12/02 08:48:39;;;;;;;18.23;16.45;;;;;;;-1.04;100.00;95760.03;5092408;28;20540;-60
2022/12/02 08:51:05;;;;;;;18.50;16.33;;;;;;;-1.03;100.00;95761.72;5092031;28;20053;-60
2022/12/02 08:53:30;;;;;;;21.52;17.13;;;;;;;-1.04;100.00;95768.63;5092379;28;20938;-60
2022/12/02 08:55:56;;;;;;;17.75;15.95;;;;;;;-1.03;100.00;95757.38;5089919;28;20622;-60
2022/12/02 08:58:21;;;;;;;19.90;16.80;;;;;;;-1.01;100.00;95752.13;5087823;28;20038;-57
2022/12/02 09:00:47;;;;;;;19.48;17.60;;;;;;;-0.98;100.00;95759.78;5072979;28;20028;-63
2022/12/02 09:03:13;;;;;;;18.48;16.67;;;;;;;-0.94;100.00;95743.22;5071688;28;20040;-64
2022/12/02 09:05:40;;;;;;;18.15;16.27;;;;;;;-0.89;100.00;95746.41;5074654;28;20023;-63
2022/12/02 09:08:06;;;;;;;22.58;17.63;;;;;;;-0.81;100.00;95743.50;5077253;28;20023;-63
2022/12/02 09:10:31;;;;;;;18.52;16.63;;;;;;;-0.75;100.00;95738.03;5076290;28;20024;-63
2022/12/02 09:12:57;;;;;;;20.88;16.35;;;;;;;-0.76;100.00;95738.94;5081023;28;20013;-63
2022/12/02 09:15:23;;;;;;;19.50;17.50;;;;;;;-0.68;100.00;95737.72;5086717;28;20600;-63
2022/12/02 09:17:49;;;;;;;27.23;21.52;;;;;;;-0.41;100.00;95733.00;5087089;28;20032;-61
2022/12/02 09:20:16;;;;;;;23.42;21.02;;;;;;;0.11;100.00;95741.69;5087973;28;20027;-67
2022/12/02 09:22:44;;;;;;;33.42;30.08;;;;;;;0.66;100.00;95738.09;5078081;28;20526;-66
2022/12/02 09:25:10;;;;;;;47.22;42.17;;;;;;;1.18;100.00;95725.84;5050969;28;20111;-67
2022/12/02 09:27:36;;;;;;;47.97;42.88;;;;;;;1.63;100.00;95731.16;5078390;28;20059;-67
2022/12/02 09:30:01;;;;;;;38.85;34.75;;;;;;;2.00;100.00;95723.88;5070698;28;20457;-66
2022/12/02 09:32:27;;;;;;;23.23;20.52;;;;;;;2.27;100.00;95730.16;5078098;28;20024;-66
2022/12/02 09:34:53;;;;;;;20.40;18.30;;;;;;;2.40;100.00;95722.47;5087928;28;20124;-68
2022/12/02 09:37:18;;;;;;;30.55;22.73;;;;;;;2.63;100.00;95721.09;5087225;28;20231;-61
2022/12/02 09:39:44;;;;;;;37.97;26.77;;;;;;;2.77;100.00;95719.44;5071113;28;20031;-61
2022/12/02 09:42:10;;;;;;;19.70;15.45;;;;;;;2.93;100.00;95719.31;5067682;28;20379;-61
2022/12/02 09:44:36;;;;;;;13.02;10.13;;;;;;;3.07;100.00;95716.72;5085865;28;20017;-62
2022/12/02 09:47:02;;;;;;;12.27;11.05;;;;;;;3.05;100.00;95718.56;5088000;28;20027;-61
2022/12/02 09:49:29;;;;;;;10.35;9.32;;;;;;;3.13;99.95;95716.31;5079305;28;20575;-61
2022/12/02 09:52:00;;;;;;;9.32;8.43;;;;;;;3.15;97.88;95706.66;5078918;28;20059;-61
2022/12/02 09:54:25;;;;;;;10.43;9.30;;;;;;;3.49;99.42;95715.88;5074801;28;20452;-60
2022/12/02 09:56:51;;;;;;;9.88;8.98;;;;;;;3.59;96.78;95709.16;5079371;28;20028;-61
2022/12/02 09:59:16;;;;;;;8.82;7.95;;;;;;;3.81;94.07;95707.75;5082656;28;20032;-68
2022/12/02 10:01:47;;;;;;;8.43;7.72;;;;;;;3.92;91.05;95709.66;5078881;28;20576;-68
2022/12/02 10:04:17;;;;;;;9.20;7.43;;;;;;;4.05;90.00;95710.53;5083900;28;20020;-68
2022/12/02 10:06:43;;;;;;;7.28;6.68;;;;;;;4.20;89.64;95708.69;5079404;28;20017;-68
2022/12/02 10:09:15;;;;;;;7.43;6.82;;;;;;;4.40;90.11;95701.31;5066207;28;20500;-67
2022/12/02 10:11:41;;;;;;;7.22;6.60;;;;;;;4.62;88.99;95699.84;5083519;28;20043;-68
2022/12/02 10:14:11;;;;;;;8.80;7.90;;;;;;;4.72;88.25;95700.88;5083013;28;20032;-61
2022/12/02 10:16:37;;;;;;;9.65;8.07;;;;;;;4.96;88.29;95695.72;5081247;28;20020;-57
2022/12/02 10:19:04;;;;;;;7.93;7.10;;;;;;;5.20;87.13;95699.34;5074244;28;20028;-58
2022/12/02 10:21:30;;;;;;;7.18;6.57;;;;;;;5.35;85.06;95692.19;5077575;28;20077;-56
2022/12/02 10:24:00;;;;;;;7.43;6.78;;;;;;;5.46;82.86;95694.84;5084576;28;20107;-57
2022/12/02 10:26:26;;;;;;;7.07;6.47;;;;;;;5.54;81.00;95687.31;5082434;28;20104;-57
2022/12/02 10:29:07;;;;;;;7.05;6.35;;;;;;;5.79;79.73;95692.53;5085443;28;20091;-58
2022/12/02 10:31:32;;;;;;;7.65;6.95;;;;;;;5.83;79.33;95683.50;5084044;28;20051;-57
2022/12/02 10:34:00;;;;;;;6.20;5.60;;;;;;;5.81;77.32;95690.63;5080253;28;20079;-61
2022/12/02 10:36:43;;;;;;;6.07;5.57;;;;;;;6.09;76.85;95678.19;5073445;28;20035;-60
2022/12/02 10:39:29;;;;;;;6.05;5.35;;;;;;;6.20;75.00;95678.19;5069882;28;20027;-60
2022/12/02 10:42:03;;;;;;;6.90;6.30;;;;;;;6.53;73.59;95675.75;5069436;28;20204;-60
2022/12/02 10:44:30;;;;;;;6.35;5.75;;;;;;;6.57;72.78;95672.81;5079943;28;20107;-60
2022/12/02 10:47:19;;;;;;;6.60;6.00;;;;;;;6.73;71.95;95661.97;5070464;28;20036;-60
2022/12/02 10:49:51;;;;;;;6.70;6.10;;;;;;;6.85;69.25;95660.19;5068037;28;20035;-60
2022/12/02 10:52:21;;;;;;;7.63;6.93;;;;;;;6.92;69.87;95660.56;5069761;28;20016;-58
2022/12/02 10:54:49;;;;;;;9.45;8.65;;;;;;;6.93;66.80;95656.97;5068548;28;20033;-60
2022/12/02 10:57:27;;;;;;;10.15;8.68;;;;;;;7.25;69.05;95655.41;5071310;28;20106;-60
2022/12/02 10:59:54;;;;;;;9.07;8.20;;;;;;;7.38;67.41;95645.59;5078011;28;20031;-60
2022/12/02 11:02:31;;;;;;;8.88;8.05;;;;;;;7.33;65.63;95657.41;5082191;28;20079;-60
2022/12/02 11:05:02;;;;;;;10.23;8.02;;;;;;;7.41;68.12;95644.50;5076335;28;20016;-60
2022/12/02 11:07:27;;;;;;;8.90;8.10;;;;;;;7.78;64.35;95646.78;5060710;28;20024;-60
2022/12/02 11:09:55;;;;;;;8.90;7.50;;;;;;;7.55;64.60;95646.03;5073451;28;20017;-60
2022/12/02 11:12:58;;;;;;;9.40;8.52;;;;;;;7.72;67.82;95634.16;5059616;28;20114;-61
2022/12/02 11:15:36;;;;;;;9.77;8.85;;;;;;;7.92;64.78;95631.69;5072580;28;20039;-60
2022/12/02 11:18:03;;;;;;;10.98;9.88;;;;;;;7.32;65.03;95630.38;5062949;28;20066;-60
2022/12/02 11:20:30;;;;;;;10.63;9.68;;;;;;;7.27;67.08;95629.91;5084129;28;20082;-60
2022/12/02 11:22:58;;;;;;;10.52;9.45;;;;;;;7.30;63.93;95627.91;5085120;28;20024;-60
2022/12/02 11:25:42;;;;;;;10.65;9.60;;;;;;;7.66;65.83;95624.19;5072011;28;20053;-60
2022/12/02 11:28:13;;;;;;;11.02;10.02;;;;;;;8.12;65.86;95616.94;5069146;28;20024;-60